Time;durP1;ratioP1;P1;durP2;ratioP2;P2;SDS_P1;SDS_P2;PMS_P1;PMS_P2;Temp;Humidity;BMP_temperature;BMP_pressure;BME280_temperature;BME280_humidity;BME280_pressure;Samples;Min_cycle;Max_cycle;Signal;HPM_P1;HPM_P2
2023/10/26 00:01:16;;;;;;;1.80;1.40;;;12.90;92.50;;;;;;5035257;28;20545;-50
2023/10/26 00:03:44;;;;;;;2.53;1.93;;;12.80;92.50;;;;;;5021359;28;20485;-49
2023/10/26 00:06:13;;;;;;;2.50;2.13;;;12.90;92.50;;;;;;5018622;28;21158;-51
2023/10/26 00:08:41;;;;;;;2.83;2.17;;;12.90;92.50;;;;;;4996450;28;20519;-50
2023/10/26 00:11:09;;;;;;;2.30;1.93;;;12.90;92.50;;;;;;4997327;28;20511;-51
2023/10/26 00:13:38;;;;;;;2.20;1.97;;;12.90;92.40;;;;;;5019184;28;20473;-50
2023/10/26 00:16:08;;;;;;;1.97;1.70;;;12.90;92.40;;;;;;4994852;28;20559;-51
2023/10/26 00:18:36;;;;;;;1.83;1.40;;;12.90;92.40;;;;;;4994921;28;20485;-50
2023/10/26 00:21:05;;;;;;;2.20;1.43;;;12.90;92.40;;;;;;5003483;28;20441;-51
2023/10/26 00:23:33;;;;;;;2.57;2.00;;;12.80;92.30;;;;;;5012863;28;20485;-49
2023/10/26 00:26:01;;;;;;;2.10;1.60;;;12.90;92.30;;;;;;5013812;28;20465;-48
2023/10/26 00:28:29;;;;;;;2.00;1.77;;;12.90;92.80;;;;;;4998399;28;20508;-51
2023/10/26 00:30:58;;;;;;;2.40;2.07;;;12.90;92.30;;;;;;4982601;28;20455;-51
2023/10/26 00:33:27;;;;;;;2.87;2.47;;;12.90;92.40;;;;;;4995826;28;20517;-51
2023/10/26 00:35:58;;;;;;;3.63;2.27;;;12.80;92.30;;;;;;4996964;28;20457;-50
2023/10/26 00:38:26;;;;;;;2.20;1.50;;;12.80;92.30;;;;;;5017629;28;20458;-49
2023/10/26 00:40:54;;;;;;;2.50;2.00;;;12.80;92.30;;;;;;4996496;28;20473;-50
2023/10/26 00:43:24;;;;;;;2.80;2.50;;;12.80;92.30;;;;;;4999714;28;20426;-50
2023/10/26 00:45:52;;;;;;;1.83;1.50;;;12.80;92.40;;;;;;4994747;28;20463;-52
2023/10/26 00:48:21;;;;;;;3.37;1.90;;;12.80;92.30;;;;;;5021510;28;20427;-50
2023/10/26 00:50:51;;;;;;;1.83;1.63;;;12.80;92.30;;;;;;4997907;28;20463;-52
2023/10/26 00:53:21;;;;;;;2.67;1.77;;;12.80;92.30;;;;;;5000426;28;20443;-51
2023/10/26 00:55:52;;;;;;;2.93;2.43;;;12.80;92.30;;;;;;5000637;28;20493;-50
2023/10/26 00:58:21;;;;;;;2.00;1.60;;;12.80;92.40;;;;;;5001696;28;20447;-51
2023/10/26 01:00:50;;;;;;;2.47;1.70;;;12.80;92.40;;;;;;5001059;28;20966;-49
2023/10/26 01:03:19;;;;;;;2.40;2.10;;;12.80;92.30;;;;;;5003996;28;20447;-52
2023/10/26 01:05:48;;;;;;;2.83;2.57;;;12.80;92.30;;;;;;5024219;28;20467;-51
2023/10/26 01:08:18;;;;;;;2.47;2.00;;;12.80;92.40;;;;;;5010930;28;20490;-51
2023/10/26 01:10:47;;;;;;;4.77;2.77;;;12.80;92.30;;;;;;5030189;28;20559;-50
2023/10/26 01:13:15;;;;;;;3.50;2.40;;;12.80;92.40;;;;;;5030079;28;20618;-51
2023/10/26 01:15:43;;;;;;;2.30;2.00;;;12.80;92.40;;;;;;5013160;28;20443;-51
2023/10/26 01:18:12;;;;;;;3.60;2.93;;;12.80;92.40;;;;;;5016159;28;20812;-52
2023/10/26 01:20:42;;;;;;;3.20;2.30;;;12.80;92.40;;;;;;5012842;28;20424;-50
2023/10/26 01:23:12;;;;;;;4.10;3.20;;;12.80;92.40;;;;;;5012424;28;20877;-51
2023/10/26 01:25:40;;;;;;;2.80;2.57;;;12.80;92.40;;;;;;5009870;28;20452;-50
2023/10/26 01:28:08;;;;;;;3.00;2.30;;;12.80;92.50;;;;;;5015404;28;20447;-50
2023/10/26 01:30:41;;;;;;;4.03;3.63;;;12.80;92.40;;;;;;5026273;28;20488;-51
2023/10/26 01:33:09;;;;;;;3.30;2.80;;;12.80;92.40;;;;;;5014946;28;21012;-51
2023/10/26 01:35:41;;;;;;;2.87;2.40;;;12.80;92.40;;;;;;5011812;28;20460;-51
2023/10/26 01:38:12;;;;;;;3.00;2.70;;;12.80;92.40;;;;;;5017456;28;20497;-51
2023/10/26 01:40:40;;;;;;;2.50;2.03;;;12.80;92.30;;;;;;5013212;28;20451;-49
2023/10/26 01:43:09;;;;;;;4.33;2.70;;;12.80;92.40;;;;;;5035507;28;20428;-51
2023/10/26 01:45:37;;;;;;;3.43;2.63;;;12.80;92.40;;;;;;5010983;28;20729;-52
2023/10/26 01:48:06;;;;;;;2.53;2.27;;;12.80;92.40;;;;;;5002910;28;20556;-51
2023/10/26 01:50:34;;;;;;;3.57;2.73;;;12.80;92.40;;;;;;5005736;28;20450;-51
2023/10/26 01:53:03;;;;;;;3.13;2.80;;;12.80;92.30;;;;;;5022696;28;20535;-51
2023/10/26 01:55:32;;;;;;;2.77;2.30;;;12.80;92.30;;;;;;5008398;28;20904;-50
2023/10/26 01:58:01;;;;;;;2.20;1.30;;;12.80;92.30;;;;;;5006388;28;20957;-51
2023/10/26 02:00:29;;;;;;;2.57;1.83;;;12.80;92.30;;;;;;5006854;28;20436;-51
2023/10/26 02:02:57;;;;;;;2.80;2.00;;;12.80;92.30;;;;;;5022209;28;20475;-50
2023/10/26 02:05:26;;;;;;;2.80;1.70;;;12.80;92.30;;;;;;5007602;28;20476;-51
2023/10/26 02:07:54;;;;;;;3.70;2.13;;;12.80;92.20;;;;;;5008096;28;20464;-51
2023/10/26 02:10:29;;;;;;;2.83;2.33;;;12.80;92.30;;;;;;5009819;28;20475;-51
2023/10/26 02:12:59;;;;;;;4.43;3.97;;;12.80;92.30;;;;;;5010282;28;20499;-50
2023/10/26 02:15:27;;;;;;;2.37;1.77;;;12.80;92.20;;;;;;5008919;28;20865;-51
2023/10/26 02:17:55;;;;;;;3.70;2.30;;;12.80;92.20;;;;;;5007129;28;20452;-52
2023/10/26 02:20:24;;;;;;;2.60;2.40;;;12.80;92.20;;;;;;5016329;28;20874;-51
2023/10/26 02:22:52;;;;;;;2.13;1.40;;;12.80;92.20;;;;;;5017956;28;20502;-51
2023/10/26 02:25:21;;;;;;;3.27;2.53;;;12.80;92.20;;;;;;5009822;28;20466;-48
2023/10/26 02:27:49;;;;;;;3.00;2.50;;;12.80;92.20;;;;;;5009737;28;20481;-50
2023/10/26 02:30:19;;;;;;;3.47;2.80;;;12.80;92.20;;;;;;5012230;28;20862;-49
2023/10/26 02:32:47;;;;;;;4.07;3.33;;;12.80;92.20;;;;;;5014448;28;21015;-52
2023/10/26 02:35:16;;;;;;;2.30;2.07;;;12.80;92.20;;;;;;5017908;28;20462;-50
2023/10/26 02:37:44;;;;;;;3.03;2.50;;;12.80;92.10;;;;;;5013393;28;20530;-50
2023/10/26 02:40:13;;;;;;;3.20;2.50;;;12.80;92.20;;;;;;5015765;28;20466;-49
2023/10/26 02:42:41;;;;;;;2.63;2.43;;;12.80;92.10;;;;;;5018206;28;20498;-51
2023/10/26 02:45:10;;;;;;;3.53;2.00;;;12.80;92.10;;;;;;5015372;28;20472;-50
2023/10/26 02:47:39;;;;;;;1.90;1.70;;;12.80;92.10;;;;;;5015142;28;20487;-49
2023/10/26 02:50:08;;;;;;;3.17;2.40;;;12.80;92.10;;;;;;5019883;28;20465;-51
2023/10/26 02:52:37;;;;;;;1.97;1.43;;;12.80;92.20;;;;;;5030951;28;21416;-50
2023/10/26 02:55:07;;;;;;;2.63;2.00;;;12.80;92.10;;;;;;5016047;28;20464;-51
2023/10/26 02:57:38;;;;;;;3.20;2.50;;;12.80;92.10;;;;;;5014581;28;20991;-51
2023/10/26 03:00:08;;;;;;;2.50;1.80;;;12.80;92.10;;;;;;5020704;28;20527;-51
2023/10/26 03:02:36;;;;;;;2.77;2.03;;;12.80;92.10;;;;;;5021390;28;21076;-51
2023/10/26 03:05:06;;;;;;;2.40;2.00;;;12.80;92.00;;;;;;5022997;28;20548;-51
2023/10/26 03:07:34;;;;;;;3.57;3.07;;;12.80;92.10;;;;;;5044979;28;20567;-49
2023/10/26 03:10:04;;;;;;;2.30;1.80;;;12.80;92.10;;;;;;5037596;28;20489;-52
2023/10/26 03:12:34;;;;;;;3.00;2.00;;;12.80;92.10;;;;;;5017596;28;20982;-49
2023/10/26 03:15:02;;;;;;;2.60;1.87;;;12.80;92.00;;;;;;5023403;28;20490;-51
2023/10/26 03:17:30;;;;;;;2.10;1.73;;;12.80;92.10;;;;;;5017583;28;21024;-49
2023/10/26 03:19:59;;;;;;;3.23;2.93;;;12.80;92.00;;;;;;5026904;28;20945;-49
2023/10/26 03:22:28;;;;;;;2.37;1.90;;;12.80;92.00;;;;;;5016459;28;20474;-49
2023/10/26 03:24:57;;;;;;;2.10;1.60;;;12.80;92.00;;;;;;5025671;28;20533;-49
2023/10/26 03:27:25;;;;;;;2.13;1.50;;;12.80;92.00;;;;;;5041706;28;20463;-48
2023/10/26 03:29:54;;;;;;;2.80;2.50;;;12.80;92.00;;;;;;5044692;28;20463;-50
2023/10/26 03:32:22;;;;;;;2.30;1.83;;;12.80;92.00;;;;;;5021930;28;20491;-49
2023/10/26 03:34:50;;;;;;;3.20;2.90;;;12.80;92.00;;;;;;5034751;28;20514;-51
2023/10/26 03:37:18;;;;;;;2.40;2.00;;;12.80;92.00;;;;;;5038292;28;20478;-52
2023/10/26 03:39:49;;;;;;;3.13;2.27;;;12.80;91.90;;;;;;5018858;28;20435;-50
2023/10/26 03:42:17;;;;;;;2.20;1.80;;;12.80;91.90;;;;;;5015803;28;20840;-51
2023/10/26 03:44:45;;;;;;;2.50;1.70;;;12.80;91.90;;;;;;5027912;28;20461;-51
2023/10/26 03:47:14;;;;;;;3.10;2.80;;;12.80;91.90;;;;;;5025327;28;20482;-50
2023/10/26 03:49:45;;;;;;;2.83;2.30;;;12.80;91.90;;;;;;5022243;28;20835;-50
2023/10/26 03:52:16;;;;;;;4.40;2.73;;;12.80;91.90;;;;;;5026999;28;20503;-50
2023/10/26 03:54:44;;;;;;;1.97;1.53;;;12.80;91.90;;;;;;5024535;28;20458;-49
2023/10/26 03:57:16;;;;;;;3.37;2.77;;;12.80;91.90;;;;;;5019392;28;20454;-50
2023/10/26 03:59:44;;;;;;;2.10;1.80;;;12.80;91.90;;;;;;5017670;28;20423;-50
2023/10/26 04:02:12;;;;;;;2.40;1.90;;;12.80;92.40;;;;;;5023864;28;20451;-50
2023/10/26 04:04:42;;;;;;;2.37;1.97;;;12.80;91.90;;;;;;5028586;28;20539;-50
2023/10/26 04:07:10;;;;;;;2.87;2.20;;;12.80;91.90;;;;;;5042944;28;20809;-50
2023/10/26 04:09:39;;;;;;;2.30;1.63;;;12.80;91.80;;;;;;5020055;28;20748;-51
2023/10/26 04:12:07;;;;;;;2.70;2.20;;;12.80;91.90;;;;;;5022610;28;20568;-50
2023/10/26 04:14:37;;;;;;;2.23;1.70;;;12.80;91.90;;;;;;5026358;28;20463;-51
2023/10/26 04:17:05;;;;;;;2.20;1.43;;;12.80;91.80;;;;;;5016616;28;20564;-51
2023/10/26 04:19:34;;;;;;;2.60;2.30;;;12.80;91.80;;;;;;5027711;28;20566;-51
2023/10/26 04:22:05;;;;;;;2.33;2.13;;;12.80;91.80;;;;;;5021077;28;21656;-51
2023/10/26 04:24:34;;;;;;;2.30;1.67;;;12.80;91.80;;;;;;5020507;28;20570;-51
2023/10/26 04:27:03;;;;;;;2.40;1.87;;;12.80;91.80;;;;;;5025344;28;20461;-52
2023/10/26 04:29:32;;;;;;;1.90;1.43;;;12.80;91.80;;;;;;5020339;28;20427;-51
2023/10/26 04:32:01;;;;;;;2.80;1.50;;;12.70;91.70;;;;;;5022554;28;20484;-51
2023/10/26 04:34:30;;;;;;;2.50;2.00;;;12.80;91.80;;;;;;5013760;28;20456;-51
2023/10/26 04:36:59;;;;;;;2.30;1.60;;;12.80;91.80;;;;;;5021526;28;20463;-50
2023/10/26 04:39:27;;;;;;;1.87;1.63;;;12.80;91.80;;;;;;5007781;28;20793;-52
2023/10/26 04:41:56;;;;;;;2.60;2.10;;;12.80;91.80;;;;;;5022132;28;20470;-51
2023/10/26 04:44:24;;;;;;;1.67;1.37;;;12.70;91.70;;;;;;5019723;28;20452;-49
2023/10/26 04:46:52;;;;;;;4.83;4.33;;;12.70;91.60;;;;;;5019283;28;20576;-51
2023/10/26 04:49:22;;;;;;;2.00;1.40;;;12.80;91.80;;;;;;5021226;28;20424;-51
2023/10/26 04:51:50;;;;;;;3.33;2.40;;;12.70;91.70;;;;;;5014659;28;20552;-49
2023/10/26 04:54:18;;;;;;;2.53;1.70;;;12.80;91.80;;;;;;5024905;28;20440;-52
2023/10/26 04:56:47;;;;;;;2.57;2.07;;;12.70;91.70;;;;;;5018673;28;20468;-50
2023/10/26 04:59:15;;;;;;;2.10;1.50;;;12.70;91.70;;;;;;5015431;28;20432;-51
2023/10/26 05:01:43;;;;;;;2.50;1.50;;;12.70;91.70;;;;;;5018588;28;20499;-52
2023/10/26 05:04:12;;;;;;;2.57;1.93;;;12.80;91.70;;;;;;5024100;28;20438;-50
2023/10/26 05:06:41;;;;;;;4.63;4.20;;;12.70;91.60;;;;;;5025780;28;20459;-51
2023/10/26 05:09:10;;;;;;;3.53;2.23;;;12.80;91.70;;;;;;5040872;28;20468;-50
2023/10/26 05:11:38;;;;;;;2.40;1.70;;;12.70;91.60;;;;;;5019152;28;20553;-51
2023/10/26 05:14:08;;;;;;;1.73;1.57;;;12.80;91.70;;;;;;5024692;28;20824;-51
2023/10/26 05:16:37;;;;;;;3.30;1.90;;;12.70;91.60;;;;;;5033807;28;20478;-51
2023/10/26 05:19:06;;;;;;;3.00;2.07;;;12.70;91.60;;;;;;5022221;28;20535;-50
2023/10/26 05:21:34;;;;;;;3.70;2.70;;;12.80;91.60;;;;;;5029109;28;20451;-49
2023/10/26 05:24:04;;;;;;;2.30;1.60;;;12.70;91.60;;;;;;5025546;28;20529;-51
2023/10/26 05:26:32;;;;;;;2.90;2.40;;;12.70;91.60;;;;;;5022578;28;20931;-50
2023/10/26 05:29:03;;;;;;;2.00;1.80;;;12.70;91.60;;;;;;5021344;28;21020;-52
2023/10/26 05:31:31;;;;;;;2.53;1.87;;;12.70;91.60;;;;;;5018321;28;20516;-50
2023/10/26 05:33:59;;;;;;;2.00;1.53;;;12.70;91.50;;;;;;5024781;28;20440;-50
2023/10/26 05:36:27;;;;;;;2.23;1.57;;;12.70;91.50;;;;;;5016248;28;20883;-52
2023/10/26 05:38:56;;;;;;;1.97;1.50;;;12.70;91.50;;;;;;5018472;28;20817;-51
2023/10/26 05:41:25;;;;;;;1.70;1.30;;;12.70;91.50;;;;;;5023945;28;20845;-51
2023/10/26 05:43:54;;;;;;;3.27;1.90;;;12.70;91.50;;;;;;5027272;28;20537;-51
2023/10/26 05:46:22;;;;;;;2.50;1.73;;;12.70;91.50;;;;;;5022570;28;20458;-52
2023/10/26 05:48:53;;;;;;;2.70;1.93;;;12.70;91.40;;;;;;5017744;28;20428;-50
2023/10/26 05:51:21;;;;;;;2.07;1.70;;;12.70;91.40;;;;;;5022353;28;20494;-49
2023/10/26 05:53:50;;;;;;;2.53;2.10;;;12.70;91.40;;;;;;5025301;28;20453;-50
2023/10/26 05:56:18;;;;;;;2.17;1.47;;;12.70;91.40;;;;;;5044458;28;20841;-51
2023/10/26 05:58:50;;;;;;;1.90;1.70;;;12.70;91.40;;;;;;5026418;28;20446;-51
2023/10/26 06:01:18;;;;;;;2.13;1.50;;;12.70;91.40;;;;;;5029207;28;20471;-49
2023/10/26 06:03:46;;;;;;;2.13;1.63;;;12.70;91.40;;;;;;5022096;28;20467;-51
2023/10/26 06:06:15;;;;;;;1.70;1.20;;;12.70;91.40;;;;;;5029284;28;20476;-52
2023/10/26 06:08:46;;;;;;;2.37;1.70;;;12.70;91.40;;;;;;5023079;28;20450;-51
2023/10/26 06:11:16;;;;;;;1.90;1.50;;;12.70;91.30;;;;;;5022901;28;20435;-51
2023/10/26 06:13:44;;;;;;;2.03;1.47;;;12.70;91.40;;;;;;5015936;28;20463;-51
2023/10/26 06:16:17;;;;;;;1.60;1.10;;;12.70;91.40;;;;;;5027168;28;20447;-49
2023/10/26 06:18:46;;;;;;;3.17;2.50;;;12.80;91.40;;;;;;5018882;28;20462;-49
2023/10/26 06:21:14;;;;;;;2.07;1.43;;;12.70;91.30;;;;;;5023368;28;20555;-51
2023/10/26 06:23:42;;;;;;;1.87;1.50;;;12.70;91.30;;;;;;5024586;28;20432;-49
2023/10/26 06:26:11;;;;;;;1.97;1.70;;;12.70;91.30;;;;;;5046436;28;20454;-50
2023/10/26 06:28:39;;;;;;;2.53;1.90;;;12.70;91.30;;;;;;5024874;28;20441;-51
2023/10/26 06:31:11;;;;;;;2.40;1.80;;;12.80;91.30;;;;;;5028530;28;20455;-52
2023/10/26 06:33:41;;;;;;;2.20;1.50;;;12.70;91.30;;;;;;5022576;28;20975;-50
2023/10/26 06:36:10;;;;;;;3.00;2.20;;;12.70;91.30;;;;;;5028642;28;20467;-50
2023/10/26 06:38:39;;;;;;;2.57;2.00;;;12.70;91.30;;;;;;5042322;28;20948;-50
2023/10/26 06:41:08;;;;;;;4.77;3.70;;;12.80;91.40;;;;;;5042554;28;20844;-51
2023/10/26 06:43:38;;;;;;;2.67;1.93;;;12.70;91.30;;;;;;5025202;28;20431;-51
2023/10/26 06:46:06;;;;;;;2.73;2.23;;;12.70;91.30;;;;;;5013013;28;20474;-50
2023/10/26 06:48:34;;;;;;;3.20;2.40;;;12.70;91.20;;;;;;5018908;28;20450;-51
2023/10/26 06:51:05;;;;;;;2.50;1.97;;;12.70;91.30;;;;;;5042488;28;20439;-51
2023/10/26 06:53:34;;;;;;;2.90;2.30;;;12.70;91.30;;;;;;5022105;28;20489;-49
2023/10/26 06:56:02;;;;;;;1.70;1.43;;;12.70;91.20;;;;;;5038968;28;20544;-51
2023/10/26 06:58:30;;;;;;;2.47;1.90;;;12.70;91.20;;;;;;5042892;28;20454;-50
2023/10/26 07:00:58;;;;;;;2.43;1.53;;;12.70;91.30;;;;;;5022448;28;20941;-49
2023/10/26 07:03:27;;;;;;;2.53;2.10;;;12.70;91.20;;;;;;5023099;28;20493;-52
2023/10/26 07:05:55;;;;;;;1.93;1.27;;;12.70;91.40;;;;;;5020396;28;20539;-49
2023/10/26 07:08:24;;;;;;;1.90;1.50;;;12.70;91.20;;;;;;5008756;28;20452;-51
2023/10/26 07:10:53;;;;;;;2.43;1.77;;;12.70;91.20;;;;;;5028704;28;20530;-51
2023/10/26 07:13:22;;;;;;;2.10;1.73;;;12.70;91.20;;;;;;5025682;28;20477;-52
2023/10/26 07:15:51;;;;;;;2.63;2.23;;;12.70;91.20;;;;;;5025203;28;20460;-51
2023/10/26 07:18:19;;;;;;;2.00;1.73;;;12.70;91.20;;;;;;5040634;28;20816;-51
2023/10/26 07:20:48;;;;;;;2.80;2.50;;;12.70;91.20;;;;;;5010156;28;20950;-50
2023/10/26 07:23:17;;;;;;;2.60;1.70;;;12.70;91.20;;;;;;5043891;28;20454;-50
2023/10/26 07:25:47;;;;;;;1.90;1.70;;;12.70;91.20;;;;;;5014142;28;20898;-49
2023/10/26 07:28:18;;;;;;;2.90;2.10;;;12.70;91.20;;;;;;5018607;28;20436;-50
2023/10/26 07:30:50;;;;;;;10.13;8.20;;;12.70;91.20;;;;;;5014247;28;20467;-49
2023/10/26 07:33:19;;;;;;;8.27;6.70;;;12.70;91.30;;;;;;5022943;28;20443;-50
2023/10/26 07:35:52;;;;;;;5.00;4.30;;;12.70;91.60;;;;;;5020123;28;20596;-52
2023/10/26 07:38:20;;;;;;;5.43;4.17;;;12.70;91.40;;;;;;5022097;28;20509;-51
2023/10/26 07:41:07;;;;;;;5.07;4.03;;;12.70;91.30;;;;;;5027552;28;20857;-51
2023/10/26 07:43:35;;;;;;;5.27;3.83;;;12.70;91.30;;;;;;5028674;28;20429;-49
2023/10/26 07:46:04;;;;;;;5.00;3.43;;;12.70;91.30;;;;;;5024368;28;20465;-50
2023/10/26 07:48:34;;;;;;;4.43;3.80;;;12.70;91.30;;;;;;5021078;28;20443;-51
2023/10/26 07:51:02;;;;;;;5.43;4.43;;;12.70;91.30;;;;;;5043595;28;20435;-50
2023/10/26 07:53:31;;;;;;;6.70;5.10;;;12.70;91.30;;;;;;5020779;28;20530;-50
2023/10/26 07:55:59;;;;;;;4.67;3.53;;;12.70;91.30;;;;;;5017671;28;20463;-50
2023/10/26 07:58:32;;;;;;;5.10;4.60;;;12.70;91.50;;;;;;5026340;28;20958;-49
2023/10/26 08:01:00;;;;;;;3.70;3.30;;;12.70;91.30;;;;;;5016745;28;20471;-50
2023/10/26 08:03:29;;;;;;;4.33;3.37;;;12.70;91.30;;;;;;5020911;28;20432;-51
2023/10/26 08:05:57;;;;;;;3.90;3.23;;;12.70;91.30;;;;;;5014406;28;20457;-49
2023/10/26 08:08:26;;;;;;;3.37;3.07;;;12.70;91.30;;;;;;5026730;28;20439;-51
2023/10/26 08:10:54;;;;;;;3.70;2.63;;;12.70;91.20;;;;;;5044917;28;20435;-50
2023/10/26 08:13:23;;;;;;;3.70;2.50;;;12.70;91.20;;;;;;5044341;28;20487;-50
2023/10/26 08:15:52;;;;;;;3.30;2.37;;;12.70;91.20;;;;;;5028842;28;20459;-48
2023/10/26 08:18:42;;;;;;;3.00;2.50;;;12.70;91.10;;;;;;5025973;28;20423;-51
2023/10/26 08:21:10;;;;;;;3.90;2.60;;;12.70;91.20;;;;;;5020025;28;20742;-51
2023/10/26 08:23:38;;;;;;;3.80;2.27;;;12.70;91.20;;;;;;5025316;28;20454;-51
2023/10/26 08:26:08;;;;;;;3.80;2.67;;;12.70;91.10;;;;;;5017745;28;20456;-51
2023/10/26 08:28:37;;;;;;;3.93;2.27;;;12.70;91.20;;;;;;5021681;28;20506;-49
2023/10/26 08:31:07;;;;;;;2.77;2.20;;;12.80;91.10;;;;;;5024217;28;20480;-51
2023/10/26 08:33:35;;;;;;;2.80;2.57;;;12.70;91.10;;;;;;5027089;28;20451;-50
2023/10/26 08:36:05;;;;;;;3.47;2.03;;;12.80;91.10;;;;;;5017830;28;20472;-51
2023/10/26 08:38:33;;;;;;;3.27;2.63;;;12.80;91.00;;;;;;5017923;28;20481;-49
2023/10/26 08:41:01;;;;;;;2.30;1.73;;;12.80;90.90;;;;;;5020453;28;20433;-51
2023/10/26 08:43:30;;;;;;;2.33;1.93;;;12.80;90.80;;;;;;5022665;28;20946;-50
2023/10/26 08:46:00;;;;;;;2.70;1.80;;;12.80;90.70;;;;;;5042286;28;20465;-51
2023/10/26 08:48:33;;;;;;;2.13;1.63;;;12.80;90.60;;;;;;5041268;28;20446;-50
2023/10/26 08:51:02;;;;;;;2.33;1.77;;;12.80;90.60;;;;;;5023418;28;20419;-49
2023/10/26 08:53:31;;;;;;;2.63;2.00;;;12.80;90.60;;;;;;5017794;28;20709;-50
2023/10/26 08:55:59;;;;;;;1.63;1.20;;;12.80;90.60;;;;;;5026592;28;20448;-52
2023/10/26 08:58:28;;;;;;;2.07;1.60;;;12.80;90.40;;;;;;5025917;28;20804;-52
2023/10/26 09:00:56;;;;;;;1.40;1.20;;;12.80;90.50;;;;;;5025640;28;20801;-50
2023/10/26 09:03:24;;;;;;;2.57;1.30;;;12.80;90.40;;;;;;5019942;28;20994;-48
2023/10/26 09:05:55;;;;;;;3.47;2.10;;;12.80;90.50;;;;;;5011973;28;20470;-49
2023/10/26 09:08:27;;;;;;;2.00;1.20;;;12.80;90.50;;;;;;5041078;28;20457;-49
2023/10/26 09:10:56;;;;;;;2.80;1.27;;;12.80;90.50;;;;;;5025620;28;20621;-50
2023/10/26 09:13:26;;;;;;;1.70;1.33;;;12.80;90.40;;;;;;5040075;28;20694;-50
2023/10/26 09:15:57;;;;;;;1.93;1.30;;;12.80;90.50;;;;;;5039671;28;20463;-52
2023/10/26 09:18:27;;;;;;;3.20;1.40;;;12.80;90.50;;;;;;5024129;28;20474;-50
2023/10/26 09:21:05;;;;;;;2.10;1.27;;;12.80;91.00;;;;;;5024090;28;20448;-49
2023/10/26 09:23:34;;;;;;;4.37;1.67;;;12.80;90.40;;;;;;5006762;28;20446;-51
2023/10/26 09:26:04;;;;;;;2.00;1.60;;;12.80;90.50;;;;;;5040265;28;20487;-51
2023/10/26 09:28:48;;;;;;;2.23;1.50;;;12.80;90.50;;;;;;5040789;28;20422;-49
2023/10/26 09:31:17;;;;;;;1.63;1.17;;;12.90;90.50;;;;;;5040684;28;20438;-50
2023/10/26 09:33:45;;;;;;;1.70;1.40;;;12.90;90.50;;;;;;5016050;28;20476;-49
2023/10/26 09:36:20;;;;;;;2.00;1.67;;;12.90;90.40;;;;;;5026927;28;20984;-51
2023/10/26 09:38:48;;;;;;;2.23;1.10;;;12.90;90.50;;;;;;5031035;28;20950;-51
2023/10/26 09:41:18;;;;;;;2.30;1.60;;;12.90;90.60;;;;;;5026664;28;20727;-51
2023/10/26 09:43:48;;;;;;;1.80;1.20;;;12.90;90.50;;;;;;5043746;28;20430;-48
2023/10/26 09:46:18;;;;;;;1.97;1.60;;;12.90;90.50;;;;;;5028166;28;20467;-51
2023/10/26 09:48:47;;;;;;;1.93;1.07;;;12.90;90.50;;;;;;5022374;28;20531;-50
2023/10/26 09:51:19;;;;;;;1.50;1.03;;;12.90;90.50;;;;;;5034982;28;20462;-49
2023/10/26 09:53:49;;;;;;;2.40;1.27;;;12.90;90.50;;;;;;5016503;28;20439;-49
2023/10/26 09:56:23;;;;;;;1.70;1.20;;;12.90;90.50;;;;;;5028693;28;20463;-50
2023/10/26 09:58:53;;;;;;;1.90;1.20;;;12.90;90.60;;;;;;5029693;28;20449;-51
2023/10/26 10:01:33;;;;;;;2.30;1.23;;;12.90;90.50;;;;;;5028821;28;20467;-49
2023/10/26 10:04:02;;;;;;;2.80;1.20;;;12.90;90.40;;;;;;5030521;28;20438;-51
2023/10/26 10:06:52;;;;;;;1.53;1.17;;;12.90;90.40;;;;;;5025441;28;20472;-49
2023/10/26 10:09:23;;;;;;;2.90;1.30;;;12.90;90.50;;;;;;5039491;28;20450;-52
2023/10/26 10:12:25;;;;;;;2.10;1.53;;;12.90;91.00;;;;;;5026688;28;20661;-50
2023/10/26 10:15:00;;;;;;;1.50;0.90;;;12.90;90.70;;;;;;5042498;28;20470;-51
2023/10/26 10:18:13;;;;;;;2.87;1.07;;;12.90;90.70;;;;;;5037697;28;20472;-51
2023/10/26 10:20:42;;;;;;;2.77;1.37;;;12.90;90.70;;;;;;5026790;28;20435;-52
2023/10/26 10:23:30;;;;;;;1.80;1.10;;;12.90;90.70;;;;;;5024835;28;20451;-51
2023/10/26 10:26:01;;;;;;;2.40;1.17;;;12.90;90.60;;;;;;5029780;28;20450;-49
2023/10/26 10:28:51;;;;;;;2.27;1.10;;;12.90;90.60;;;;;;5038887;28;20820;-49
2023/10/26 10:31:43;;;;;;;1.73;1.20;;;12.90;90.50;;;;;;5044364;28;20481;-50
2023/10/26 10:34:15;;;;;;;1.57;1.23;;;12.90;90.50;;;;;;5025964;28;20468;-51
2023/10/26 10:37:15;;;;;;;1.57;1.20;;;12.90;90.50;;;;;;5045037;28;20496;-49
2023/10/26 10:40:12;;;;;;;2.67;1.20;;;12.90;90.40;;;;;;5024994;28;20450;-51
2023/10/26 10:42:45;;;;;;;3.20;1.23;;;12.90;90.40;;;;;;4989507;28;20473;-49
2023/10/26 10:45:14;;;;;;;1.70;1.03;;;12.90;90.30;;;;;;5024047;28;20626;-48
2023/10/26 10:47:43;;;;;;;1.47;0.90;;;12.90;90.30;;;;;;5027609;28;20474;-49
2023/10/26 10:50:19;;;;;;;1.50;1.10;;;12.90;90.30;;;;;;5009237;28;20458;-51
2023/10/26 10:52:48;;;;;;;1.20;1.00;;;12.90;90.30;;;;;;5022739;28;20472;-51
2023/10/26 10:55:25;;;;;;;1.17;0.60;;;12.90;90.30;;;;;;5015180;28;20479;-50
2023/10/26 10:57:59;;;;;;;1.53;0.90;;;12.90;90.30;;;;;;5040263;28;20490;-50
2023/10/26 11:00:29;;;;;;;1.40;0.90;;;12.90;90.30;;;;;;5014893;28;20459;-51
2023/10/26 11:03:00;;;;;;;2.03;1.30;;;12.90;90.30;;;;;;5036694;28;20475;-51
2023/10/26 11:05:35;;;;;;;1.73;1.07;;;12.90;90.30;;;;;;5033788;28;20461;-48
2023/10/26 11:08:03;;;;;;;2.00;1.37;;;12.90;90.40;;;;;;5019896;28;20821;-50
2023/10/26 11:10:32;;;;;;;1.63;1.20;;;12.90;90.50;;;;;;5046074;28;20918;-49
2023/10/26 11:13:01;;;;;;;1.77;1.30;;;12.80;90.50;;;;;;5025272;28;20459;-50
2023/10/26 11:15:33;;;;;;;2.13;1.10;;;12.80;90.50;;;;;;5028380;28;20533;-49
2023/10/26 11:18:02;;;;;;;1.53;1.00;;;12.90;90.50;;;;;;5020589;28;20482;-52
2023/10/26 11:20:35;;;;;;;1.40;1.00;;;12.90;90.40;;;;;;5030006;28;20443;-51
2023/10/26 11:23:05;;;;;;;1.40;0.90;;;12.90;90.50;;;;;;5020471;28;20459;-49
2023/10/26 11:25:34;;;;;;;2.13;1.10;;;12.90;90.40;;;;;;5047177;28;20525;-49
2023/10/26 11:28:03;;;;;;;2.23;1.10;;;12.90;90.50;;;;;;5023199;28;20440;-50
2023/10/26 11:30:46;;;;;;;1.93;1.50;;;12.90;90.50;;;;;;5043745;28;20800;-51
2023/10/26 11:33:29;;;;;;;1.40;0.90;;;12.90;90.40;;;;;;5034110;28;20507;-50
2023/10/26 11:35:58;;;;;;;1.47;0.90;;;12.90;90.50;;;;;;5035085;28;21045;-51
2023/10/26 11:38:27;;;;;;;1.40;1.07;;;12.90;90.40;;;;;;5037251;28;20531;-51
2023/10/26 11:40:57;;;;;;;1.30;0.90;;;12.90;90.40;;;;;;5029146;28;20447;-48
2023/10/26 11:43:32;;;;;;;1.30;1.00;;;12.90;90.40;;;;;;5026415;28;20777;-51
2023/10/26 11:46:02;;;;;;;1.13;0.93;;;12.90;90.40;;;;;;5023380;28;20844;-51
2023/10/26 11:48:32;;;;;;;1.37;1.13;;;12.80;90.30;;;;;;5027053;28;20477;-51
2023/10/26 11:51:02;;;;;;;1.30;0.90;;;12.90;90.30;;;;;;5017714;28;20460;-51
2023/10/26 11:53:31;;;;;;;1.67;1.20;;;12.90;90.30;;;;;;5038136;28;20863;-49
2023/10/26 11:56:00;;;;;;;2.07;1.00;;;12.90;90.30;;;;;;5039327;28;20459;-51
2023/10/26 11:58:29;;;;;;;1.53;0.90;;;12.90;90.20;;;;;;5039808;28;20439;-50
2023/10/26 12:00:57;;;;;;;1.37;0.80;;;12.90;90.30;;;;;;5026358;28;20795;-49
2023/10/26 12:03:26;;;;;;;2.13;1.73;;;12.90;90.20;;;;;;5040405;28;20801;-51
2023/10/26 12:05:54;;;;;;;1.43;0.90;;;12.90;90.20;;;;;;5021434;28;20510;-49
2023/10/26 12:08:25;;;;;;;1.77;1.30;;;12.90;90.20;;;;;;5019944;28;20936;-50
2023/10/26 12:10:54;;;;;;;1.80;1.30;;;12.90;90.20;;;;;;5024758;28;20502;-50
2023/10/26 12:13:24;;;;;;;1.40;1.27;;;12.90;90.20;;;;;;5029185;28;20466;-50
2023/10/26 12:15:53;;;;;;;2.03;0.80;;;12.90;90.20;;;;;;5026230;28;20552;-50
2023/10/26 12:18:21;;;;;;;1.50;1.20;;;12.90;90.30;;;;;;5026992;28;20443;-51
2023/10/26 12:20:49;;;;;;;2.70;1.40;;;12.90;90.20;;;;;;5026168;28;20463;-51
2023/10/26 12:23:21;;;;;;;2.53;1.20;;;12.90;90.30;;;;;;5020898;28;20557;-49
2023/10/26 12:25:49;;;;;;;1.50;1.10;;;12.90;90.20;;;;;;5026583;28;20993;-51
2023/10/26 12:28:18;;;;;;;1.50;0.90;;;12.90;90.30;;;;;;5040246;28;20428;-51
2023/10/26 12:30:56;;;;;;;1.97;1.00;;;12.90;90.30;;;;;;5026622;28;20681;-51
2023/10/26 12:33:24;;;;;;;1.30;1.00;;;12.90;90.60;;;;;;5025562;28;20449;-51
2023/10/26 12:35:53;;;;;;;1.47;0.93;;;12.90;90.50;;;;;;5025909;28;20564;-50
2023/10/26 12:38:22;;;;;;;1.97;1.17;;;12.90;90.60;;;;;;5026448;28;20448;-50
2023/10/26 12:40:50;;;;;;;2.10;1.17;;;12.90;90.40;;;;;;5025879;28;20440;-50
2023/10/26 12:43:19;;;;;;;2.33;1.20;;;12.90;90.60;;;;;;5029180;28;20537;-49
2023/10/26 12:45:47;;;;;;;1.50;0.90;;;12.80;90.60;;;;;;5029362;28;20529;-48
2023/10/26 12:48:17;;;;;;;1.87;1.10;;;12.90;90.50;;;;;;5042990;28;20820;-49
2023/10/26 12:50:45;;;;;;;1.27;0.77;;;12.90;90.40;;;;;;5020586;28;20442;-49
2023/10/26 12:53:16;;;;;;;2.57;1.47;;;12.90;90.40;;;;;;5005947;28;20494;-49
2023/10/26 12:55:44;;;;;;;1.53;0.83;;;12.90;90.40;;;;;;5019400;28;20472;-51
2023/10/26 12:58:12;;;;;;;3.43;1.17;;;12.90;90.50;;;;;;5026124;28;20444;-50
2023/10/26 13:00:41;;;;;;;2.37;1.20;;;12.90;90.60;;;;;;5040173;28;20442;-48
2023/10/26 13:03:10;;;;;;;1.40;0.80;;;12.90;90.60;;;;;;5008672;28;20467;-49